Time;durP1;ratioP1;P1;durP2;ratioP2;P2;SDS_P1;SDS_P2;PMS_P1;PMS_P2;Temp;Humidity;BMP_temperature;BMP_pressure;BME280_temperature;BME280_humidity;BME280_pressure;Samples;Min_cycle;Max_cycle;Signal;HPM_P1;HPM_P2
2022/12/06 04:56:33;;;;;;;8.88;0.55;;;11.70;67.10;;;;;;4751478;30;20536;-70
2022/12/06 04:58:59;;;;;;;6.82;0.88;;;11.70;67.40;;;;;;4755683;30;20048;-69
2022/12/06 05:01:28;;;;;;;6.95;1.13;;;11.70;67.50;;;;;;4756747;30;20074;-73
2022/12/06 05:03:53;;;;;;;3.80;0.90;;;11.70;68.20;;;;;;4740991;30;20063;-73
2022/12/06 05:06:19;;;;;;;10.30;1.10;;;11.80;68.60;;;;;;4756707;30;20044;-74
2022/12/06 05:08:45;;;;;;;6.90;0.70;;;12.00;68.70;;;;;;4756742;30;20056;-74
2022/12/06 05:11:11;;;;;;;4.05;0.50;;;12.10;68.70;;;;;;4741108;30;20060;-74
2022/12/06 05:13:37;;;;;;;12.00;0.93;;;12.30;68.70;;;;;;4757040;30;20040;-74
2022/12/06 05:16:05;;;;;;;11.57;0.85;;;12.50;68.70;;;;;;4756901;30;20060;-75
2022/12/06 05:18:31;;;;;;;10.13;1.00;;;12.70;68.70;;;;;;4741137;30;20063;-76
2022/12/06 05:21:04;;;;;;;10.50;1.08;;;12.90;68.80;;;;;;4756621;30;20129;-75
2022/12/06 05:23:31;;;;;;;10.13;1.55;;;13.00;69.00;;;;;;4756928;30;20103;-76
2022/12/06 05:26:00;;;;;;;8.23;0.90;;;13.20;69.00;;;;;;4740797;30;20092;-75
2022/12/06 05:28:29;;;;;;;12.25;1.20;;;13.30;69.10;;;;;;4756582;30;20353;-79
2022/12/06 05:31:15;;;;;;;12.18;1.05;;;13.40;69.10;;;;;;4739680;30;20052;-78
2022/12/06 05:34:02;;;;;;;8.23;0.82;;;13.40;68.90;;;;;;4737622;30;20048;-77
2022/12/06 05:36:30;;;;;;;7.25;1.35;;;13.60;69.40;;;;;;4738035;30;20507;-77
2022/12/06 05:39:15;;;;;;;10.38;0.95;;;13.50;69.40;;;;;;4767914;30;20086;-77
2022/12/06 05:41:55;;;;;;;13.13;1.13;;;13.70;69.60;;;;;;4728819;30;20049;-78
2022/12/06 05:44:55;;;;;;;8.65;1.08;;;13.60;69.60;;;;;;4743037;30;20092;-76
2022/12/06 05:47:51;;;;;;;11.73;1.27;;;13.70;70.00;;;;;;4772880;30;20059;-76
2022/12/06 05:50:20;;;;;;;8.90;1.30;;;13.80;69.80;;;;;;4743572;30;20479;-76
2022/12/06 05:52:52;;;;;;;13.43;1.33;;;13.80;64.20;;;;;;4739909;30;20109;-76
2022/12/06 05:55:18;;;;;;;16.17;1.40;;;13.90;69.30;;;;;;4745881;30;20083;-77
2022/12/06 05:57:43;;;;;;;10.70;1.27;;;14.00;69.30;;;;;;4756242;30;20094;-76
2022/12/06 06:00:09;;;;;;;14.18;1.20;;;14.20;69.30;;;;;;4756079;30;20052;-76
2022/12/06 06:02:35;;;;;;;10.73;0.90;;;14.30;69.30;;;;;;4755491;30;20044;-77
2022/12/06 06:05:01;;;;;;;14.35;1.20;;;14.30;69.00;;;;;;4754842;30;20068;-76
2022/12/06 06:07:28;;;;;;;13.57;1.45;;;14.40;68.90;;;;;;4755973;30;20062;-75
2022/12/06 06:09:54;;;;;;;10.57;0.93;;;14.50;68.80;;;;;;4754056;30;20056;-75
2022/12/06 06:12:20;;;;;;;13.07;0.80;;;14.50;67.20;;;;;;4748320;30;20097;-77
2022/12/06 06:14:45;;;;;;;6.28;1.27;;;14.50;65.60;;;;;;4747658;30;20045;-77
2022/12/06 06:17:12;;;;;;;3.47;0.88;;;14.40;63.70;;;;;;4730853;30;20051;-76
2022/12/06 06:19:38;;;;;;;4.70;0.57;;;14.30;62.30;;;;;;4746944;30;20056;-76
2022/12/06 06:22:03;;;;;;;1.15;0.40;;;14.30;60.90;;;;;;4748021;30;20368;-76
2022/12/06 06:24:35;;;;;;;3.53;0.35;;;14.20;60.80;;;;;;4730231;30;20121;-78
2022/12/06 06:27:02;;;;;;;3.95;0.70;;;14.10;60.40;;;;;;4729764;30;20113;-77
2022/12/06 06:29:28;;;;;;;4.05;0.90;;;14.00;60.60;;;;;;4746793;30;20552;-76
2022/12/06 06:31:54;;;;;;;3.42;0.85;;;14.00;60.80;;;;;;4748431;30;20040;-77
2022/12/06 06:34:20;;;;;;;5.93;1.20;;;13.90;60.80;;;;;;4759177;30;20125;-75
2022/12/06 06:36:46;;;;;;;2.78;1.05;;;13.90;60.60;;;;;;4747150;30;20040;-76
2022/12/06 06:39:12;;;;;;;4.72;1.23;;;13.80;60.20;;;;;;4744624;30;20106;-80
2022/12/06 06:41:38;;;;;;;4.95;0.88;;;13.70;59.80;;;;;;4746294;30;20058;-74
2022/12/06 06:44:03;;;;;;;7.50;0.85;;;13.60;60.50;;;;;;4731532;30;20056;-78
2022/12/06 06:46:29;;;;;;;5.93;0.70;;;13.50;61.20;;;;;;4729259;30;20048;-77
2022/12/06 06:48:55;;;;;;;2.70;0.70;;;13.50;61.70;;;;;;4745838;30;20048;-76
2022/12/06 06:51:21;;;;;;;5.10;0.90;;;13.50;62.00;;;;;;4745741;30;20056;-73
2022/12/06 06:53:47;;;;;;;2.15;0.60;;;13.50;61.20;;;;;;4748899;30;20460;-73
2022/12/06 06:56:13;;;;;;;2.70;0.57;;;13.40;59.50;;;;;;4743941;30;20068;-73
2022/12/06 06:58:39;;;;;;;3.05;0.50;;;13.40;58.00;;;;;;4745331;30;20130;-75
2022/12/06 07:01:07;;;;;;;7.85;1.20;;;13.30;57.50;;;;;;4746463;30;20136;-73
2022/12/06 07:03:33;;;;;;;7.68;1.25;;;13.20;57.90;;;;;;4750359;30;20413;-70
2022/12/06 07:06:02;;;;;;;10.10;1.40;;;13.20;58.50;;;;;;4745517;30;20044;-75
2022/12/06 07:08:30;;;;;;;8.35;1.35;;;13.20;59.10;;;;;;4750418;30;20052;-78
2022/12/06 07:10:56;;;;;;;11.00;1.45;;;13.10;59.30;;;;;;4745823;30;20091;-75
2022/12/06 07:13:23;;;;;;;12.63;1.00;;;13.20;59.30;;;;;;4744894;30;20063;-75
2022/12/06 07:15:50;;;;;;;6.20;0.77;;;13.10;59.30;;;;;;4745443;30;20075;-74
2022/12/06 07:18:16;;;;;;;8.13;1.15;;;13.20;59.50;;;;;;4745015;30;20053;-76
2022/12/06 07:20:43;;;;;;;4.45;1.00;;;13.10;59.70;;;;;;4745024;30;20052;-74
2022/12/06 07:23:09;;;;;;;2.10;0.82;;;13.10;59.70;;;;;;4751957;30;20056;-75
2022/12/06 07:25:34;;;;;;;11.85;0.93;;;13.10;59.90;;;;;;4754733;30;20365;-75
2022/12/06 07:28:00;;;;;;;8.77;1.10;;;13.10;60.20;;;;;;4747115;30;20052;-74
2022/12/06 07:30:26;;;;;;;5.15;1.17;;;13.10;60.60;;;;;;4737995;30;20133;-74
2022/12/06 07:32:53;;;;;;;7.50;0.98;;;13.10;60.80;;;;;;4753119;30;20047;-73
2022/12/06 07:35:19;;;;;;;5.88;1.00;;;13.10;61.30;;;;;;4754573;30;20048;-75
2022/12/06 07:37:45;;;;;;;5.68;0.70;;;13.10;61.50;;;;;;4754613;30;20054;-76
2022/12/06 07:40:13;;;;;;;4.22;0.70;;;13.10;61.80;;;;;;4753817;30;20044;-75
2022/12/06 07:45:23;;;;;;;;;;;13.00;62.20;;;;;;4746629;30;20056;-74
2022/12/06 07:47:49;;;;;;;8.98;0.90;;;13.00;62.50;;;;;;4745504;30;19926;-77
2022/12/06 07:50:17;;;;;;;8.70;1.08;;;13.00;62.60;;;;;;4746412;30;20401;-74
2022/12/06 07:52:44;;;;;;;6.68;0.80;;;13.00;62.80;;;;;;4729123;30;20447;-76
2022/12/06 07:55:11;;;;;;;5.75;0.70;;;13.00;63.00;;;;;;4744938;30;20074;-76
2022/12/06 07:57:37;;;;;;;6.80;0.95;;;13.00;63.20;;;;;;4744487;30;20181;-74
2022/12/06 08:00:05;;;;;;;7.43;1.17;;;13.00;63.40;;;;;;4746638;30;20148;-74
2022/12/06 08:02:31;;;;;;;5.03;1.42;;;13.00;63.50;;;;;;4750484;30;20063;-74
2022/12/06 08:04:57;;;;;;;5.15;0.90;;;12.90;63.50;;;;;;4748599;30;20048;-77
2022/12/06 08:07:24;;;;;;;3.88;0.90;;;12.90;63.70;;;;;;4748780;30;20145;-75
2022/12/06 08:09:52;;;;;;;11.38;1.50;;;13.00;63.60;;;;;;4731868;30;20131;-76
2022/12/06 08:12:20;;;;;;;5.00;0.80;;;12.90;63.80;;;;;;4751931;30;20056;-75
2022/12/06 08:14:46;;;;;;;2.80;0.65;;;12.80;64.30;;;;;;4752128;30;20052;-74
2022/12/06 08:17:12;;;;;;;6.28;0.70;;;12.60;64.40;;;;;;4771780;30;20062;-74
2022/12/06 08:19:38;;;;;;;4.80;0.80;;;12.50;64.80;;;;;;4756728;30;20056;-75
2022/12/06 08:22:05;;;;;;;8.85;1.25;;;12.50;64.90;;;;;;4755914;30;20147;-75
2022/12/06 08:24:31;;;;;;;4.15;0.77;;;12.60;64.60;;;;;;4756555;30;20082;-75
2022/12/06 08:26:58;;;;;;;6.82;1.00;;;12.60;63.70;;;;;;4756856;30;20460;-75
2022/12/06 08:29:24;;;;;;;4.47;1.02;;;12.60;63.50;;;;;;4757959;30;20131;-76
2022/12/06 08:31:49;;;;;;;8.63;1.10;;;12.60;63.40;;;;;;4769868;30;20139;-77
2022/12/06 08:34:16;;;;;;;3.05;0.77;;;12.70;63.50;;;;;;4728722;30;20445;-75
2022/12/06 08:36:42;;;;;;;8.40;0.85;;;12.70;63.40;;;;;;4739634;30;20084;-77
2022/12/06 08:39:10;;;;;;;8.77;1.73;;;12.80;63.60;;;;;;4739518;30;20110;-77
2022/12/06 08:41:54;;;;;;;5.97;0.93;;;12.90;63.70;;;;;;4739737;30;20082;-74
2022/12/06 08:44:20;;;;;;;6.35;1.08;;;13.10;63.70;;;;;;4756293;30;20058;-75
2022/12/06 08:46:47;;;;;;;7.70;0.80;;;13.30;63.40;;;;;;4757070;30;20068;-74
2022/12/06 08:49:15;;;;;;;14.07;1.73;;;13.50;63.20;;;;;;4756127;30;20475;-74
2022/12/06 08:51:42;;;;;;;7.35;1.20;;;13.60;63.00;;;;;;4755293;30;20067;-76
2022/12/06 08:54:10;;;;;;;12.95;1.85;;;13.70;63.00;;;;;;4756719;30;20125;-75
2022/12/06 08:56:36;;;;;;;28.33;1.77;;;13.90;62.80;;;;;;4756889;30;20063;-76
2022/12/06 08:59:03;;;;;;;16.77;1.77;;;14.00;62.70;;;;;;4756440;30;20148;-74
2022/12/06 09:01:31;;;;;;;17.55;1.70;;;14.00;62.70;;;;;;4754993;30;20044;-76
2022/12/06 09:04:01;;;;;;;10.77;1.73;;;14.10;62.70;;;;;;4755984;30;20052;-76
2022/12/06 09:06:27;;;;;;;12.77;1.55;;;14.10;62.60;;;;;;4756641;30;20052;-75
2022/12/06 09:08:53;;;;;;;11.43;1.50;;;14.10;62.70;;;;;;4756718;30;20063;-74
2022/12/06 09:11:19;;;;;;;14.05;1.90;;;14.10;62.70;;;;;;4756790;30;20056;-76
2022/12/06 09:13:45;;;;;;;12.77;1.30;;;14.00;62.80;;;;;;4755141;30;20056;-75
2022/12/06 09:16:17;;;;;;;10.85;1.27;;;14.00;62.80;;;;;;4756653;30;20494;-74
2022/12/06 09:18:43;;;;;;;10.65;1.52;;;14.00;62.90;;;;;;4756714;30;20052;-76
2022/12/06 09:21:12;;;;;;;10.02;1.20;;;13.90;63.00;;;;;;4756752;30;20059;-75
2022/12/06 09:23:38;;;;;;;7.05;1.13;;;13.90;63.10;;;;;;4756635;30;20048;-76
2022/12/06 09:26:05;;;;;;;4.53;1.05;;;13.80;63.10;;;;;;4756770;30;20063;-78
2022/12/06 09:28:34;;;;;;;9.25;0.98;;;13.80;63.20;;;;;;4755723;30;20055;-75
2022/12/06 09:31:01;;;;;;;5.05;0.73;;;13.70;63.30;;;;;;4756445;30;20052;-75
2022/12/06 09:33:27;;;;;;;7.13;0.80;;;13.70;63.40;;;;;;4755143;30;20448;-76
2022/12/06 09:35:53;;;;;;;5.68;0.60;;;13.70;63.50;;;;;;4755467;30;20125;-74
2022/12/06 09:38:21;;;;;;;8.30;0.90;;;13.70;63.50;;;;;;4756768;30;20060;-76
2022/12/06 09:41:10;;;;;;;7.15;1.42;;;13.70;63.50;;;;;;4756659;30;20044;-74
2022/12/06 09:43:38;;;;;;;13.52;1.70;;;13.60;63.60;;;;;;4755537;30;20095;-75
2022/12/06 09:46:29;;;;;;;6.80;1.40;;;13.60;63.70;;;;;;4751105;30;20048;-74
2022/12/06 09:49:26;;;;;;;6.70;1.25;;;13.70;64.00;;;;;;4753115;30;20204;-75
2022/12/06 09:52:14;;;;;;;8.75;1.65;;;13.90;64.00;;;;;;4730524;30;20121;-75
2022/12/06 09:55:13;;;;;;;5.97;0.93;;;14.00;63.70;;;;;;4755197;30;20068;-74
2022/12/06 09:58:02;;;;;;;8.75;1.20;;;14.20;63.40;;;;;;4737536;30;20064;-74
2022/12/06 10:00:40;;;;;;;5.70;1.13;;;14.30;63.20;;;;;;4738563;30;20068;-75
2022/12/06 10:03:12;;;;;;;6.55;0.90;;;14.40;63.20;;;;;;4738198;30;20057;-76
2022/12/06 10:05:52;;;;;;;6.28;0.88;;;14.60;63.20;;;;;;4741353;30;20131;-77
2022/12/06 10:08:49;;;;;;;4.30;1.02;;;14.60;63.30;;;;;;4754928;30;20056;-73
2022/12/06 10:11:27;;;;;;;3.58;0.82;;;14.70;63.20;;;;;;4755819;30;20135;-71
2022/12/06 10:13:53;;;;;;;5.32;1.08;;;14.70;63.40;;;;;;4754812;30;20143;-74
2022/12/06 10:16:18;;;;;;;11.05;0.65;;;14.70;63.50;;;;;;4755378;30;20127;-75
2022/12/06 10:19:00;;;;;;;3.95;0.60;;;14.80;63.60;;;;;;4755473;30;20200;-75
2022/12/06 10:21:56;;;;;;;10.45;0.75;;;15.00;63.70;;;;;;4755226;30;20059;-73
2022/12/06 10:25:07;;;;;;;5.35;0.93;;;15.10;63.70;;;;;;4755101;30;20071;-72
2022/12/06 10:27:39;;;;;;;5.40;1.00;;;15.10;63.60;;;;;;4753752;30;20395;-72
2022/12/06 10:30:12;;;;;;;7.80;1.25;;;15.20;63.00;;;;;;4755593;30;20056;-73
2022/12/06 10:33:06;;;;;;;5.47;0.80;;;15.20;62.60;;;;;;4755786;30;20060;-70
2022/12/06 10:35:52;;;;;;;5.85;1.13;;;15.10;63.00;;;;;;4754284;30;20063;-73
2022/12/06 10:38:26;;;;;;;5.93;1.08;;;15.10;62.70;;;;;;4755454;30;20052;-72
2022/12/06 10:40:54;;;;;;;6.32;1.13;;;15.10;62.30;;;;;;4755237;30;20056;-71
2022/12/06 10:43:43;;;;;;;6.45;0.90;;;15.10;61.70;;;;;;4755474;30;20103;-73
2022/12/06 10:49:38;;;;;;;9.32;0.90;;;15.00;60.70;;;;;;4755251;30;20060;-71
2022/12/06 10:52:28;;;;;;;5.15;0.65;;;14.90;59.70;;;;;;4754694;30;20067;-70
2022/12/06 10:55:09;;;;;;;6.05;0.85;;;14.80;60.40;;;;;;4754476;30;20056;-74
2022/12/06 10:57:41;;;;;;;4.15;0.60;;;14.70;60.00;;;;;;4754718;30;20137;-74
2022/12/06 11:00:21;;;;;;;6.75;0.95;;;14.70;60.10;;;;;;4754825;30;20056;-72
2022/12/06 11:03:08;;;;;;;3.28;0.50;;;14.70;60.10;;;;;;4739605;30;20062;-71
2022/12/06 11:05:46;;;;;;;3.42;0.55;;;14.60;60.30;;;;;;4754449;30;20052;-72
2022/12/06 11:08:14;;;;;;;4.78;0.85;;;14.60;60.30;;;;;;4755623;30;20048;-72
2022/12/06 11:10:43;;;;;;;4.97;0.60;;;14.50;60.40;;;;;;4754632;30;20055;-72
2022/12/06 11:13:31;;;;;;;3.97;0.50;;;14.50;60.40;;;;;;4755344;30;20059;-74
2022/12/06 11:16:09;;;;;;;3.22;0.85;;;14.50;60.50;;;;;;4754580;30;20052;-73
2022/12/06 11:18:36;;;;;;;3.03;0.35;;;14.40;60.60;;;;;;4739305;30;20056;-75
2022/12/06 11:21:14;;;;;;;1.05;0.30;;;14.40;60.70;;;;;;4754748;30;20129;-73
2022/12/06 11:24:04;;;;;;;3.20;0.32;;;14.40;60.60;;;;;;4754414;30;20056;-72
2022/12/06 11:26:56;;;;;;;6.43;0.77;;;14.40;60.60;;;;;;4752382;30;20064;-73
2022/12/06 11:29:22;;;;;;;3.47;0.65;;;14.30;60.50;;;;;;4737959;30;20047;-73
2022/12/06 11:32:00;;;;;;;3.10;0.65;;;14.30;60.60;;;;;;4753533;30;20124;-75
2022/12/06 11:34:37;;;;;;;2.88;0.60;;;14.30;60.50;;;;;;4754263;30;20070;-73
2022/12/06 11:37:04;;;;;;;2.03;0.45;;;14.30;60.60;;;;;;4753912;30;20056;-73
2022/12/06 11:39:32;;;;;;;5.63;0.70;;;14.30;60.70;;;;;;4754601;30;20067;-75
2022/12/06 11:42:02;;;;;;;2.75;0.47;;;14.20;60.70;;;;;;4768302;30;20376;-74
2022/12/06 11:44:51;;;;;;;1.77;0.60;;;14.20;60.80;;;;;;4754123;30;20060;-73
2022/12/06 11:47:20;;;;;;;2.10;0.35;;;14.10;60.90;;;;;;4747487;30;20064;-74
2022/12/06 11:49:49;;;;;;;2.05;0.63;;;14.10;61.10;;;;;;4739048;30;20064;-76
2022/12/06 11:52:34;;;;;;;2.30;0.30;;;14.00;61.10;;;;;;4753643;30;20114;-78
2022/12/06 11:55:42;;;;;;;3.17;0.65;;;14.00;61.40;;;;;;4753535;30;20060;-78
2022/12/06 11:58:21;;;;;;;1.25;0.30;;;14.00;61.70;;;;;;4752076;30;20072;-78
2022/12/06 12:01:05;;;;;;;2.38;0.32;;;13.90;61.90;;;;;;4754067;30;20060;-76
2022/12/06 12:03:34;;;;;;;4.10;0.33;;;13.90;62.40;;;;;;4753325;30;20044;-76
2022/12/06 12:06:24;;;;;;;2.72;0.50;;;13.80;62.60;;;;;;4753402;30;20052;-77
2022/12/06 12:08:57;;;;;;;4.10;0.43;;;13.80;63.10;;;;;;4751098;30;20044;-75
2022/12/06 12:11:29;;;;;;;1.98;0.30;;;13.80;63.50;;;;;;4753670;30;20081;-78
2022/12/06 12:13:59;;;;;;;4.65;0.45;;;13.80;64.00;;;;;;4753231;30;20104;-75
2022/12/06 12:16:47;;;;;;;1.98;0.60;;;13.80;64.00;;;;;;4753213;30;20052;-78
2022/12/06 12:19:35;;;;;;;2.13;0.52;;;13.70;64.00;;;;;;4752108;30;20063;-78
2022/12/06 12:22:19;;;;;;;3.25;0.40;;;13.80;64.10;;;;;;4752791;30;20060;-76
2022/12/06 12:24:52;;;;;;;1.50;0.57;;;13.80;64.20;;;;;;4753511;30;20206;-74
2022/12/06 12:27:50;;;;;;;3.58;0.65;;;13.70;64.10;;;;;;4752369;30;20067;-76
2022/12/06 12:30:22;;;;;;;3.78;0.40;;;13.80;64.20;;;;;;4752502;30;20372;-74
2022/12/06 12:32:50;;;;;;;3.08;0.40;;;13.80;64.30;;;;;;4750827;30;20117;-76
2022/12/06 12:35:19;;;;;;;4.38;0.40;;;13.70;64.40;;;;;;4752921;30;20522;-77
2022/12/06 12:37:54;;;;;;;2.63;0.40;;;13.70;64.50;;;;;;4750936;30;20056;-76
2022/12/06 12:40:21;;;;;;;3.20;0.57;;;13.70;64.70;;;;;;4749947;30;20123;-74
2022/12/06 12:42:47;;;;;;;4.65;0.30;;;13.70;64.90;;;;;;4734843;30;20044;-75
2022/12/06 12:45:21;;;;;;;5.70;0.30;;;13.60;64.90;;;;;;4751381;30;20059;-76
2022/12/06 12:48:00;;;;;;;;;;;13.60;65.10;;;;;;4751871;30;20052;-75
2022/12/06 12:50:27;;;;;;;2.78;0.52;;;13.60;65.10;;;;;;4754547;30;19925;-76
2022/12/06 12:52:54;;;;;;;1.95;0.47;;;13.60;65.40;;;;;;4756554;30;20060;-76
2022/12/06 12:55:28;;;;;;;4.57;0.60;;;13.50;65.70;;;;;;4753867;30;20083;-74
2022/12/06 12:58:09;;;;;;;3.55;0.52;;;13.60;65.90;;;;;;4770182;30;20384;-75
2022/12/06 13:00:40;;;;;;;3.72;0.28;;;13.50;65.90;;;;;;4756366;30;20107;-75
2022/12/06 13:03:18;;;;;;;2.15;0.50;;;13.50;66.00;;;;;;4756310;30;20435;-76
2022/12/06 13:05:47;;;;;;;2.80;0.50;;;13.50;66.20;;;;;;4754445;30;20094;-76
2022/12/06 13:08:20;;;;;;;3.58;0.30;;;13.50;66.30;;;;;;4755822;30;20055;-78
2022/12/06 13:10:48;;;;;;;3.55;0.70;;;13.50;66.50;;;;;;4748997;30;20088;-74
2022/12/06 13:13:32;;;;;;;5.10;0.60;;;13.50;66.50;;;;;;4756122;30;20064;-76
2022/12/06 13:16:00;;;;;;;4.30;0.60;;;13.50;66.70;;;;;;4754871;30;20052;-75
2022/12/06 13:18:41;;;;;;;6.88;1.25;;;13.50;66.90;;;;;;4755767;30;20117;-76
2022/12/06 13:21:16;;;;;;;4.68;0.47;;;13.50;67.20;;;;;;4751769;30;20082;-75
2022/12/06 13:23:43;;;;;;;5.50;0.65;;;13.40;67.30;;;;;;4756683;30;20151;-75
2022/12/06 13:26:25;;;;;;;8.85;0.80;;;13.40;67.30;;;;;;4741149;30;20117;-76
2022/12/06 13:29:00;;;;;;;1.85;0.77;;;13.40;67.30;;;;;;4753042;30;20071;-76
2022/12/06 13:31:32;;;;;;;6.53;0.60;;;13.40;67.40;;;;;;4738987;30;20108;-76
2022/12/06 13:34:20;;;;;;;5.10;0.73;;;13.40;67.50;;;;;;4738661;30;20138;-76
2022/12/06 13:36:46;;;;;;;3.38;0.50;;;13.40;67.60;;;;;;4709539;30;20203;-77
2022/12/06 13:39:30;;;;;;;8.43;0.82;;;13.40;67.70;;;;;;4725908;30;20105;-75
2022/12/06 13:42:16;;;;;;;6.68;0.73;;;13.40;67.80;;;;;;4770203;30;20048;-74
2022/12/06 13:44:55;;;;;;;6.25;0.55;;;13.40;67.90;;;;;;4756370;30;20098;-71
2022/12/06 13:47:27;;;;;;;4.00;0.68;;;13.40;67.10;;;;;;4755840;30;20153;-72
2022/12/06 13:49:57;;;;;;;5.13;0.47;;;13.40;66.90;;;;;;4755906;30;20052;-77
2022/12/06 13:52:55;;;;;;;10.68;1.10;;;13.30;66.70;;;;;;4752969;30;20056;-75
2022/12/06 13:55:29;;;;;;;5.75;0.60;;;13.30;66.60;;;;;;4711029;30;20147;-76
2022/12/06 13:58:15;;;;;;;4.65;0.45;;;13.30;66.70;;;;;;4732166;30;20084;-76
2022/12/06 14:00:41;;;;;;;4.40;0.40;;;13.30;66.70;;;;;;4750782;30;20092;-76
2022/12/06 14:03:18;;;;;;;11.02;1.00;;;13.30;67.00;;;;;;4723133;30;20137;-76
2022/12/06 14:06:03;;;;;;;9.60;1.33;;;13.40;67.30;;;;;;4755144;30;20040;-76
2022/12/06 14:09:08;;;;;;;14.13;1.33;;;13.50;67.50;;;;;;4725730;30;20549;-76
2022/12/06 14:23:19;;;;;;;7.88;0.77;;;14.40;66.20;;;;;;4666469;30;20056;-77
2022/12/06 14:25:48;;;;;;;3.28;0.57;;;14.50;65.70;;;;;;4661608;30;20076;-76
2022/12/06 14:28:13;;;;;;;7.25;1.00;;;14.60;65.60;;;;;;4682564;30;20061;-75
2022/12/06 14:30:43;;;;;;;7.35;0.80;;;14.70;65.40;;;;;;4672275;30;20081;-76
2022/12/06 14:33:22;;;;;;;14.57;1.25;;;14.70;65.40;;;;;;4746287;30;20121;-74
2022/12/06 14:35:50;;;;;;;15.18;1.55;;;14.80;65.60;;;;;;4755073;30;20080;-73
2022/12/06 14:38:30;;;;;;;11.98;1.15;;;14.40;67.00;;;;;;4739974;30;20051;-75
2022/12/06 14:43:44;;;;;;;9.93;0.70;;;14.30;68.10;;;;;;4754898;30;20448;-74
2022/12/06 14:46:13;;;;;;;15.38;1.10;;;14.50;67.90;;;;;;4755543;30;20133;-75
2022/12/06 14:51:32;;;;;;;15.55;1.67;;;14.80;66.80;;;;;;4755209;30;20064;-74
2022/12/06 14:54:33;;;;;;;8.23;1.20;;;14.90;66.80;;;;;;4755117;30;20060;-75
2022/12/06 14:57:00;;;;;;;10.82;1.00;;;15.10;66.80;;;;;;4738931;30;20056;-74
2022/12/06 14:59:26;;;;;;;7.25;0.80;;;15.10;66.50;;;;;;4755272;30;20059;-77
2022/12/06 15:01:55;;;;;;;13.63;1.17;;;15.10;66.50;;;;;;4753826;30;20431;-77
2022/12/06 15:04:33;;;;;;;2.97;0.70;;;15.20;66.30;;;;;;4755029;30;20059;-76
2022/12/06 15:07:00;;;;;;;18.77;2.00;;;15.20;66.10;;;;;;4754689;30;20040;-75
2022/12/06 15:09:30;;;;;;;10.13;1.00;;;15.30;66.20;;;;;;4754839;30;20066;-77
2022/12/06 15:15:38;;;;;;;9.05;1.17;;;15.40;65.90;;;;;;4753083;30;20067;-75
2022/12/06 15:18:25;;;;;;;13.32;1.35;;;15.40;65.80;;;;;;4737390;30;20048;-71
2022/12/06 15:20:52;;;;;;;9.60;1.25;;;15.40;66.10;;;;;;4738631;30;20068;-77
2022/12/06 15:23:34;;;;;;;17.63;1.65;;;15.40;66.00;;;;;;4738991;30;20456;-77
2022/12/06 15:26:02;;;;;;;10.85;1.52;;;15.40;66.00;;;;;;4738812;30;20056;-77
2022/12/06 15:32:42;;;;;;;10.18;1.33;;;15.40;66.50;;;;;;4663160;30;20121;-77
2022/12/06 15:35:17;;;;;;;15.95;2.83;;;15.50;66.60;;;;;;4739577;30;20345;-78
2022/12/06 15:38:07;;;;;;;19.77;2.55;;;15.40;66.60;;;;;;4723627;30;20035;-77
2022/12/06 15:41:02;;;;;;;13.23;1.30;;;15.30;67.20;;;;;;4724428;30;20052;-78
2022/12/06 15:43:33;;;;;;;10.35;1.00;;;15.30;66.00;;;;;;4719987;30;20392;-75
2022/12/06 15:46:01;;;;;;;2.38;0.60;;;15.20;64.40;;;;;;4757147;30;20044;-75
2022/12/06 15:48:35;;;;;;;13.57;1.10;;;15.00;62.00;;;;;;4746590;30;20052;-77
2022/12/06 15:51:03;;;;;;;4.40;0.70;;;14.60;60.70;;;;;;4745787;30;20052;-76
2022/12/06 15:53:29;;;;;;;5.43;0.63;;;14.30;62.00;;;;;;4745649;30;20131;-76
2022/12/06 15:55:55;;;;;;;4.90;0.57;;;14.10;63.40;;;;;;4757542;30;20059;-74
2022/12/06 15:58:21;;;;;;;4.18;0.95;;;14.10;64.00;;;;;;4747332;30;20063;-77
2022/12/06 16:00:48;;;;;;;3.50;0.60;;;14.10;63.80;;;;;;4745351;30;20384;-75
2022/12/06 16:03:14;;;;;;;4.82;0.93;;;14.20;63.90;;;;;;4736620;30;20067;-75
2022/12/06 16:05:40;;;;;;;6.30;0.80;;;14.20;64.20;;;;;;4737070;30;20064;-76
2022/12/06 16:08:06;;;;;;;5.25;0.75;;;14.30;64.40;;;;;;4745474;30;20063;-73
2022/12/06 16:10:33;;;;;;;9.23;1.00;;;14.30;64.50;;;;;;4754308;30;20071;-76
2022/12/06 16:15:42;;;;;;;;;;;14.30;64.40;;;;;;4754320;30;20052;-75
2022/12/06 16:18:08;;;;;;;3.85;0.63;;;14.30;63.90;;;;;;4729221;30;19926;-77
2022/12/06 16:20:34;;;;;;;7.38;0.85;;;14.40;64.30;;;;;;4736728;30;20056;-75
2022/12/06 16:25:47;;;;;;;6.03;1.08;;;14.60;64.60;;;;;;4739938;30;20460;-76
2022/12/06 16:28:14;;;;;;;7.57;0.98;;;14.80;65.30;;;;;;4749662;30;20436;-75
2022/12/06 16:30:40;;;;;;;7.38;1.30;;;14.90;64.70;;;;;;4757585;30;20080;-76
2022/12/06 16:33:06;;;;;;;7.25;1.05;;;14.90;65.20;;;;;;4757395;30;20079;-75
2022/12/06 16:35:32;;;;;;;10.55;1.55;;;15.00;66.30;;;;;;4757253;30;20052;-76
2022/12/06 16:37:58;;;;;;;8.38;1.30;;;15.00;65.90;;;;;;4757394;30;20109;-78
2022/12/06 16:40:26;;;;;;;11.35;2.05;;;15.10;66.20;;;;;;4757220;30;20040;-76
2022/12/06 16:42:52;;;;;;;11.00;1.50;;;15.10;66.50;;;;;;4757243;30;20091;-78
2022/12/06 16:45:18;;;;;;;12.98;1.70;;;15.10;66.70;;;;;;4756925;30;20145;-75
2022/12/06 16:47:44;;;;;;;13.20;2.00;;;15.10;67.00;;;;;;4756700;30;20044;-75
2022/12/06 16:50:25;;;;;;;15.07;1.80;;;15.00;67.10;;;;;;4756185;30;20044;-76
2022/12/06 16:52:51;;;;;;;20.88;2.83;;;15.00;67.50;;;;;;4757235;30;20431;-73
2022/12/06 16:55:18;;;;;;;23.23;2.75;;;15.00;67.50;;;;;;4756206;30;20059;-77
2022/12/06 16:57:44;;;;;;;22.15;3.35;;;15.00;67.70;;;;;;4756339;30;20387;-78
2022/12/06 17:00:12;;;;;;;18.00;2.97;;;14.90;67.90;;;;;;4755398;30;20044;-75
2022/12/06 17:02:38;;;;;;;27.35;3.55;;;14.90;68.10;;;;;;4757184;30;20409;-76
2022/12/06 17:05:05;;;;;;;40.92;3.00;;;14.90;68.40;;;;;;4757375;30;20056;-77
2022/12/06 17:07:34;;;;;;;27.40;2.90;;;14.80;68.70;;;;;;4756566;30;20368;-76
2022/12/06 17:10:00;;;;;;;19.73;3.33;;;14.80;69.00;;;;;;4756683;30;20071;-77
2022/12/06 17:12:26;;;;;;;24.33;2.85;;;14.70;69.10;;;;;;4756993;30;20048;-75
2022/12/06 17:14:52;;;;;;;17.35;2.30;;;14.80;69.30;;;;;;4756717;30;20052;-76
2022/12/06 17:17:20;;;;;;;20.80;2.28;;;14.70;69.10;;;;;;4756442;30;20333;-74
2022/12/06 17:19:47;;;;;;;24.73;2.33;;;14.70;68.90;;;;;;4726628;30;20071;-77
2022/12/06 17:22:15;;;;;;;17.67;2.80;;;14.70;68.80;;;;;;4747473;30;20122;-76
2022/12/06 17:24:41;;;;;;;16.70;2.75;;;14.70;68.80;;;;;;4723192;30;20538;-77
2022/12/06 17:27:08;;;;;;;17.67;3.38;;;14.70;68.80;;;;;;4739679;30;20052;-75
2022/12/06 17:29:34;;;;;;;19.30;2.17;;;14.70;68.70;;;;;;4756205;30;20048;-73
2022/12/06 17:32:00;;;;;;;14.35;2.17;;;14.60;68.50;;;;;;4756501;30;20048;-77
2022/12/06 17:45:30;;;;;;;15.13;1.73;;;14.60;67.90;;;;;;4701683;30;20040;-76
2022/12/06 17:47:56;;;;;;;9.82;1.35;;;14.50;67.80;;;;;;4672779;30;20053;-77
2022/12/06 17:50:24;;;;;;;2.40;0.82;;;14.60;67.80;;;;;;4701677;30;20091;-76
2022/12/06 18:30:20;;;;;;;4.43;0.68;;;13.60;66.30;;;;;;5552843;24;20051;-75
2022/12/06 18:32:46;;;;;;;4.45;0.60;;;13.60;65.90;;;;;;4786922;29;20055;-76
2022/12/06 18:35:12;;;;;;;6.95;1.38;;;13.70;66.00;;;;;;4775527;30;20368;-73
2022/12/06 18:37:38;;;;;;;2.90;0.70;;;13.70;66.30;;;;;;4773519;30;20066;-72
2022/12/06 18:40:05;;;;;;;1.77;0.82;;;13.70;66.40;;;;;;4773258;30;20099;-72
2022/12/06 18:42:32;;;;;;;5.63;0.60;;;13.80;66.60;;;;;;4773192;30;20060;-73
2022/12/06 18:44:58;;;;;;;5.07;0.90;;;13.80;67.70;;;;;;4772939;30;20055;-74
2022/12/06 18:47:24;;;;;;;4.35;0.60;;;13.80;68.00;;;;;;4772153;30;20387;-77
2022/12/06 18:49:50;;;;;;;5.38;0.50;;;13.80;68.30;;;;;;4773365;30;20406;-72
2022/12/06 18:52:16;;;;;;;2.45;0.32;;;13.80;68.70;;;;;;4772972;30;20067;-72
2022/12/06 18:54:41;;;;;;;7.75;0.77;;;13.80;68.70;;;;;;4772764;30;20052;-72
2022/12/06 18:57:07;;;;;;;4.03;0.80;;;13.80;69.00;;;;;;4772936;30;20485;-72
2022/12/06 18:59:36;;;;;;;5.40;0.90;;;13.90;69.20;;;;;;4772771;30;20126;-70
2022/12/06 19:02:02;;;;;;;2.35;0.40;;;13.80;69.50;;;;;;4775604;30;20048;-72
2022/12/06 19:04:28;;;;;;;1.88;0.75;;;13.80;69.90;;;;;;4790813;30;20056;-72
2022/12/06 19:06:53;;;;;;;8.90;1.17;;;13.90;69.60;;;;;;4804579;29;20054;-72
2022/12/06 19:09:21;;;;;;;3.58;0.60;;;13.80;69.30;;;;;;4790760;29;20159;-72
2022/12/06 19:11:48;;;;;;;5.88;0.82;;;13.90;69.30;;;;;;4791197;29;20047;-72
2022/12/06 19:14:14;;;;;;;3.90;0.47;;;13.80;69.10;;;;;;4791120;29;20051;-73
2022/12/06 19:16:45;;;;;;;4.53;0.77;;;13.80;68.90;;;;;;4790557;29;20077;-70
2022/12/06 19:19:22;;;;;;;1.73;0.70;;;13.80;68.70;;;;;;4790247;29;20475;-72
2022/12/06 19:21:50;;;;;;;1.90;0.50;;;13.90;68.00;;;;;;4790582;30;20473;-72
2022/12/06 19:24:19;;;;;;;5.82;0.70;;;13.80;67.20;;;;;;4783778;30;20368;-73
2022/12/06 19:26:45;;;;;;;10.40;0.82;;;13.80;66.50;;;;;;4764341;30;20133;-73
2022/12/06 19:29:14;;;;;;;4.03;0.63;;;13.80;66.10;;;;;;4778082;29;20043;-72